Grover, Nebraska
Current Conditions -  °F | °C
As of 5:54 AM on Monday 26 Jan 2015 (Local Time) from KLNK Reporting Station
Clear Clear  
Wind Chill: 25°   Ceiling: Unl
Heat Index: 30°   Visibility: 10mi
Dew Point: 27°   Wind: 5mph
Humidity: 88%   Direction: 190°S
Pressure: 29.93"   Gusts: NA
Location:  40.7413°N, 97.0887°W
Report Text: KLNK 261154Z 19004KT 10SM CLR M01/M03 A2993 RMK AO2 SLP145 T10111028 10006 21022 56029
Loading
Personal Weather Stations






























Interactive Weather Map New forecast layout! Learn more

10-Day Weather Forecast

Advertisements
Track Severe Weather on mobile